Terminal Aerodrome Forecast
Issued by NWS Omaha/Valley, NE

Home | Current Version | Previous Version | Text Only | Print | Product List | Glossary On
Versions: 1 2 3 4 5 6 7 8 9 10 11 12 13 14 15 16 17 18 19 20 21 22 23 24 25 26 27 28 29 30 31 32 33 34 35 36 37 38 39 40 41
000
FTUS43 KOAX 311728
TAFOMA
TAF
KOMA 311728Z 3118/0118 15009KT P6SM -RASN OVC009
      TEMPO 3118/3120 2SM -RASN OVC006
     FM312100 14009KT 3SM -RASN BR OVC008
     FM010400 02007KT 2SM -SN OVC004
      TEMPO 0104/0108 1/2SM SN OVC004
     FM011200 35018G27KT 4SM -SN OVC007
      TEMPO 0115/0118 1 1/2SM -SN OVC007=

USA.gov is the U.S. government's official web portal to all federal, state and local government web resources and services.